sensor_id;sensor_type;location;lat;lon;timestamp;P1;durP1;ratioP1;P2;durP2;ratioP2
5209;SDS011;2624;48.048;11.706;2023-07-28T00:03:35;2.30;;;1.23;;
5209;SDS011;2624;48.048;11.706;2023-07-28T00:08:37;2.67;;;1.90;;
5209;SDS011;2624;48.048;11.706;2023-07-28T00:13:40;2.13;;;1.93;;
5209;SDS011;2624;48.048;11.706;2023-07-28T00:18:43;1.70;;;1.60;;
5209;SDS011;2624;48.048;11.706;2023-07-28T00:23:44;1.90;;;1.60;;
5209;SDS011;2624;48.048;11.706;2023-07-28T00:28:47;1.83;;;1.73;;
5209;SDS011;2624;48.048;11.706;2023-07-28T00:33:49;1.87;;;1.77;;
5209;SDS011;2624;48.048;11.706;2023-07-28T00:38:51;2.40;;;1.73;;
5209;SDS011;2624;48.048;11.706;2023-07-28T00:43:54;1.70;;;1.60;;
5209;SDS011;2624;48.048;11.706;2023-07-28T00:48:56;2.00;;;1.70;;
5209;SDS011;2624;48.048;11.706;2023-07-28T00:53:58;3.27;;;1.93;;
5209;SDS011;2624;48.048;11.706;2023-07-28T00:59:03;1.73;;;1.63;;
5209;SDS011;2624;48.048;11.706;2023-07-28T01:04:05;3.07;;;1.87;;
5209;SDS011;2624;48.048;11.706;2023-07-28T01:09:09;1.97;;;1.87;;
5209;SDS011;2624;48.048;11.706;2023-07-28T01:14:15;1.33;;;1.33;;
5209;SDS011;2624;48.048;11.706;2023-07-28T01:19:17;1.33;;;1.33;;
5209;SDS011;2624;48.048;11.706;2023-07-28T01:24:21;1.67;;;1.57;;
5209;SDS011;2624;48.048;11.706;2023-07-28T01:29:31;1.80;;;1.70;;
5209;SDS011;2624;48.048;11.706;2023-07-28T01:34:32;1.37;;;1.37;;
5209;SDS011;2624;48.048;11.706;2023-07-28T01:39:34;1.80;;;1.70;;
5209;SDS011;2624;48.048;11.706;2023-07-28T01:44:37;1.47;;;1.40;;
5209;SDS011;2624;48.048;11.706;2023-07-28T01:49:39;1.60;;;1.50;;
5209;SDS011;2624;48.048;11.706;2023-07-28T01:54:41;1.40;;;1.30;;
5209;SDS011;2624;48.048;11.706;2023-07-28T01:59:44;2.50;;;1.57;;
5209;SDS011;2624;48.048;11.706;2023-07-28T02:04:46;2.80;;;1.77;;
5209;SDS011;2624;48.048;11.706;2023-07-28T02:09:47;1.87;;;1.77;;
5209;SDS011;2624;48.048;11.706;2023-07-28T02:14:50;2.30;;;1.50;;
5209;SDS011;2624;48.048;11.706;2023-07-28T02:19:52;1.50;;;1.40;;
5209;SDS011;2624;48.048;11.706;2023-07-28T02:24:54;3.00;;;1.70;;
5209;SDS011;2624;48.048;11.706;2023-07-28T02:29:57;1.63;;;1.30;;
5209;SDS011;2624;48.048;11.706;2023-07-28T02:34:59;2.90;;;1.60;;
5209;SDS011;2624;48.048;11.706;2023-07-28T02:40:00;1.10;;;1.10;;
5209;SDS011;2624;48.048;11.706;2023-07-28T02:45:04;1.47;;;1.40;;
5209;SDS011;2624;48.048;11.706;2023-07-28T02:50:08;1.40;;;1.30;;
5209;SDS011;2624;48.048;11.706;2023-07-28T02:55:10;1.67;;;1.50;;
5209;SDS011;2624;48.048;11.706;2023-07-28T03:00:13;1.50;;;1.40;;
5209;SDS011;2624;48.048;11.706;2023-07-28T03:05:15;1.53;;;1.30;;
5209;SDS011;2624;48.048;11.706;2023-07-28T03:10:17;2.10;;;2.00;;
5209;SDS011;2624;48.048;11.706;2023-07-28T03:15:21;1.43;;;1.20;;
5209;SDS011;2624;48.048;11.706;2023-07-28T03:20:23;2.10;;;1.90;;
5209;SDS011;2624;48.048;11.706;2023-07-28T03:25:25;1.47;;;1.37;;
5209;SDS011;2624;48.048;11.706;2023-07-28T03:30:28;1.80;;;1.70;;
5209;SDS011;2624;48.048;11.706;2023-07-28T03:35:30;1.87;;;1.50;;
5209;SDS011;2624;48.048;11.706;2023-07-28T03:40:32;7.33;;;1.83;;
5209;SDS011;2624;48.048;11.706;2023-07-28T03:45:35;1.40;;;1.33;;
5209;SDS011;2624;48.048;11.706;2023-07-28T03:50:37;2.40;;;1.40;;
5209;SDS011;2624;48.048;11.706;2023-07-28T03:55:38;1.63;;;1.53;;
5209;SDS011;2624;48.048;11.706;2023-07-28T04:00:42;1.50;;;1.40;;
5209;SDS011;2624;48.048;11.706;2023-07-28T04:05:43;2.10;;;1.53;;
5209;SDS011;2624;48.048;11.706;2023-07-28T04:10:45;1.53;;;1.43;;
5209;SDS011;2624;48.048;11.706;2023-07-28T04:15:48;1.33;;;1.33;;
5209;SDS011;2624;48.048;11.706;2023-07-28T04:20:50;6.83;;;1.50;;
5209;SDS011;2624;48.048;11.706;2023-07-28T04:25:52;1.37;;;1.27;;
5209;SDS011;2624;48.048;11.706;2023-07-28T04:30:55;1.47;;;1.37;;
5209;SDS011;2624;48.048;11.706;2023-07-28T04:35:56;1.17;;;1.17;;
5209;SDS011;2624;48.048;11.706;2023-07-28T04:40:58;2.00;;;1.10;;
5209;SDS011;2624;48.048;11.706;2023-07-28T04:46:01;1.80;;;1.70;;
5209;SDS011;2624;48.048;11.706;2023-07-28T04:51:03;2.03;;;1.70;;
5209;SDS011;2624;48.048;11.706;2023-07-28T04:56:05;1.87;;;1.40;;
5209;SDS011;2624;48.048;11.706;2023-07-28T05:01:09;1.87;;;1.77;;
5209;SDS011;2624;48.048;11.706;2023-07-28T05:06:12;4.97;;;2.03;;
5209;SDS011;2624;48.048;11.706;2023-07-28T05:11:14;3.53;;;2.10;;
5209;SDS011;2624;48.048;11.706;2023-07-28T05:16:17;1.90;;;1.77;;
5209;SDS011;2624;48.048;11.706;2023-07-28T05:21:19;8.23;;;2.13;;
5209;SDS011;2624;48.048;11.706;2023-07-28T05:26:22;1.30;;;1.30;;
5209;SDS011;2624;48.048;11.706;2023-07-28T05:31:25;2.27;;;2.07;;
5209;SDS011;2624;48.048;11.706;2023-07-28T05:36:27;1.43;;;1.33;;
5209;SDS011;2624;48.048;11.706;2023-07-28T05:41:29;2.13;;;1.90;;
5209;SDS011;2624;48.048;11.706;2023-07-28T05:46:33;5.33;;;1.77;;
5209;SDS011;2624;48.048;11.706;2023-07-28T05:51:35;12.23;;;1.97;;
5209;SDS011;2624;48.048;11.706;2023-07-28T05:56:37;4.30;;;2.70;;
5209;SDS011;2624;48.048;11.706;2023-07-28T06:01:40;1.67;;;1.57;;
5209;SDS011;2624;48.048;11.706;2023-07-28T06:06:42;1.77;;;1.67;;
5209;SDS011;2624;48.048;11.706;2023-07-28T06:11:44;2.77;;;1.80;;
5209;SDS011;2624;48.048;11.706;2023-07-28T06:16:47;4.70;;;2.10;;
5209;SDS011;2624;48.048;11.706;2023-07-28T06:21:49;3.50;;;2.00;;
5209;SDS011;2624;48.048;11.706;2023-07-28T06:26:51;1.90;;;1.80;;
5209;SDS011;2624;48.048;11.706;2023-07-28T06:31:54;1.87;;;1.77;;
5209;SDS011;2624;48.048;11.706;2023-07-28T06:36:56;2.10;;;2.00;;
5209;SDS011;2624;48.048;11.706;2023-07-28T06:41:58;2.00;;;1.60;;
5209;SDS011;2624;48.048;11.706;2023-07-28T06:47:01;3.87;;;2.47;;
5209;SDS011;2624;48.048;11.706;2023-07-28T06:52:03;1.73;;;1.63;;
5209;SDS011;2624;48.048;11.706;2023-07-28T06:57:06;2.80;;;1.97;;
5209;SDS011;2624;48.048;11.706;2023-07-28T07:02:09;4.70;;;1.60;;
5209;SDS011;2624;48.048;11.706;2023-07-28T07:07:11;1.67;;;1.57;;
5209;SDS011;2624;48.048;11.706;2023-07-28T07:12:13;1.83;;;1.73;;
5209;SDS011;2624;48.048;11.706;2023-07-28T07:17:17;2.60;;;1.80;;
5209;SDS011;2624;48.048;11.706;2023-07-28T07:22:19;5.43;;;1.83;;
5209;SDS011;2624;48.048;11.706;2023-07-28T07:27:20;1.80;;;1.53;;
5209;SDS011;2624;48.048;11.706;2023-07-28T07:32:24;1.50;;;1.40;;
5209;SDS011;2624;48.048;11.706;2023-07-28T07:37:25;1.60;;;1.50;;
5209;SDS011;2624;48.048;11.706;2023-07-28T07:42:28;1.83;;;1.73;;
5209;SDS011;2624;48.048;11.706;2023-07-28T07:47:42;3.60;;;1.83;;
5209;SDS011;2624;48.048;11.706;2023-07-28T07:52:44;2.90;;;1.70;;
5209;SDS011;2624;48.048;11.706;2023-07-28T07:57:46;1.70;;;1.60;;
5209;SDS011;2624;48.048;11.706;2023-07-28T08:02:49;1.63;;;1.53;;
5209;SDS011;2624;48.048;11.706;2023-07-28T08:07:51;1.83;;;1.73;;
5209;SDS011;2624;48.048;11.706;2023-07-28T08:12:55;1.80;;;1.70;;
5209;SDS011;2624;48.048;11.706;2023-07-28T08:17:58;2.20;;;2.10;;
5209;SDS011;2624;48.048;11.706;2023-07-28T08:23:00;2.00;;;1.90;;
5209;SDS011;2624;48.048;11.706;2023-07-28T08:28:02;1.73;;;1.63;;
5209;SDS011;2624;48.048;11.706;2023-07-28T08:33:05;1.50;;;1.40;;
5209;SDS011;2624;48.048;11.706;2023-07-28T08:38:07;1.70;;;1.60;;
5209;SDS011;2624;48.048;11.706;2023-07-28T08:43:08;2.00;;;1.53;;
5209;SDS011;2624;48.048;11.706;2023-07-28T08:48:12;1.60;;;1.50;;
5209;SDS011;2624;48.048;11.706;2023-07-28T08:53:13;1.73;;;1.57;;
5209;SDS011;2624;48.048;11.706;2023-07-28T08:58:16;1.80;;;1.70;;
5209;SDS011;2624;48.048;11.706;2023-07-28T09:03:20;1.90;;;1.57;;
5209;SDS011;2624;48.048;11.706;2023-07-28T09:08:22;1.90;;;1.80;;
5209;SDS011;2624;48.048;11.706;2023-07-28T09:13:24;5.50;;;1.70;;
5209;SDS011;2624;48.048;11.706;2023-07-28T09:18:27;1.07;;;1.07;;
5209;SDS011;2624;48.048;11.706;2023-07-28T09:23:30;1.87;;;1.60;;
5209;SDS011;2624;48.048;11.706;2023-07-28T09:28:37;1.97;;;1.53;;
5209;SDS011;2624;48.048;11.706;2023-07-28T09:33:41;10.80;;;2.40;;
5209;SDS011;2624;48.048;11.706;2023-07-28T09:38:46;3.10;;;1.40;;
5209;SDS011;2624;48.048;11.706;2023-07-28T09:43:49;2.20;;;1.90;;
5209;SDS011;2624;48.048;11.706;2023-07-28T09:48:55;1.90;;;1.80;;
5209;SDS011;2624;48.048;11.706;2023-07-28T09:54:02;1.77;;;1.67;;
5209;SDS011;2624;48.048;11.706;2023-07-28T09:59:07;2.40;;;2.20;;
5209;SDS011;2624;48.048;11.706;2023-07-28T10:04:15;5.63;;;2.70;;
5209;SDS011;2624;48.048;11.706;2023-07-28T10:09:17;3.57;;;2.10;;
5209;SDS011;2624;48.048;11.706;2023-07-28T10:14:25;1.60;;;1.50;;
5209;SDS011;2624;48.048;11.706;2023-07-28T10:19:29;4.00;;;2.60;;
5209;SDS011;2624;48.048;11.706;2023-07-28T10:24:50;1.70;;;1.60;;
5209;SDS011;2624;48.048;11.706;2023-07-28T10:29:55;3.80;;;2.37;;
5209;SDS011;2624;48.048;11.706;2023-07-28T10:35:00;2.97;;;1.50;;
5209;SDS011;2624;48.048;11.706;2023-07-28T10:45:30;3.33;;;1.90;;
5209;SDS011;2624;48.048;11.706;2023-07-28T10:50:34;2.40;;;2.20;;
5209;SDS011;2624;48.048;11.706;2023-07-28T10:55:36;2.40;;;2.23;;
5209;SDS011;2624;48.048;11.706;2023-07-28T11:00:38;1.73;;;1.63;;
5209;SDS011;2624;48.048;11.706;2023-07-28T11:05:42;1.97;;;1.87;;
5209;SDS011;2624;48.048;11.706;2023-07-28T11:10:44;1.93;;;1.70;;
5209;SDS011;2624;48.048;11.706;2023-07-28T11:15:46;5.00;;;2.40;;
5209;SDS011;2624;48.048;11.706;2023-07-28T11:20:50;2.33;;;2.20;;
5209;SDS011;2624;48.048;11.706;2023-07-28T11:25:51;2.43;;;2.33;;
5209;SDS011;2624;48.048;11.706;2023-07-28T11:30:53;2.07;;;1.87;;
5209;SDS011;2624;48.048;11.706;2023-07-28T11:35:56;1.80;;;1.70;;
5209;SDS011;2624;48.048;11.706;2023-07-28T11:40:58;1.93;;;1.70;;
5209;SDS011;2624;48.048;11.706;2023-07-28T11:46:00;2.37;;;2.17;;
5209;SDS011;2624;48.048;11.706;2023-07-28T11:51:03;2.53;;;2.33;;
5209;SDS011;2624;48.048;11.706;2023-07-28T11:56:05;2.27;;;2.17;;
5209;SDS011;2624;48.048;11.706;2023-07-28T12:01:07;14.30;;;2.13;;
5209;SDS011;2624;48.048;11.706;2023-07-28T12:06:11;5.50;;;1.90;;
5209;SDS011;2624;48.048;11.706;2023-07-28T12:11:13;1.93;;;1.83;;
5209;SDS011;2624;48.048;11.706;2023-07-28T12:16:38;2.20;;;2.10;;
5209;SDS011;2624;48.048;11.706;2023-07-28T12:21:43;3.43;;;1.87;;
5209;SDS011;2624;48.048;11.706;2023-07-28T12:26:45;2.10;;;2.00;;
5209;SDS011;2624;48.048;11.706;2023-07-28T12:31:48;2.00;;;1.90;;
5209;SDS011;2624;48.048;11.706;2023-07-28T12:36:51;1.80;;;1.70;;
5209;SDS011;2624;48.048;11.706;2023-07-28T12:41:52;1.80;;;1.70;;
5209;SDS011;2624;48.048;11.706;2023-07-28T12:46:54;2.13;;;2.03;;
5209;SDS011;2624;48.048;11.706;2023-07-28T12:51:58;1.33;;;1.30;;
5209;SDS011;2624;48.048;11.706;2023-07-28T12:57:00;1.80;;;1.70;;
5209;SDS011;2624;48.048;11.706;2023-07-28T13:02:02;2.20;;;2.10;;
5209;SDS011;2624;48.048;11.706;2023-07-28T13:07:06;1.73;;;1.63;;
5209;SDS011;2624;48.048;11.706;2023-07-28T13:12:07;4.23;;;2.00;;
5209;SDS011;2624;48.048;11.706;2023-07-28T13:17:09;1.60;;;1.47;;
5209;SDS011;2624;48.048;11.706;2023-07-28T13:22:13;1.57;;;1.57;;
5209;SDS011;2624;48.048;11.706;2023-07-28T13:27:15;2.93;;;2.23;;
5209;SDS011;2624;48.048;11.706;2023-07-28T13:32:18;1.77;;;1.67;;
5209;SDS011;2624;48.048;11.706;2023-07-28T13:37:27;2.33;;;2.23;;
5209;SDS011;2624;48.048;11.706;2023-07-28T13:42:29;3.23;;;1.83;;
5209;SDS011;2624;48.048;11.706;2023-07-28T13:47:30;1.83;;;1.73;;
5209;SDS011;2624;48.048;11.706;2023-07-28T13:52:33;2.53;;;1.90;;
5209;SDS011;2624;48.048;11.706;2023-07-28T13:57:35;3.20;;;3.00;;
5209;SDS011;2624;48.048;11.706;2023-07-28T14:02:38;3.40;;;1.30;;
5209;SDS011;2624;48.048;11.706;2023-07-28T14:07:42;3.83;;;2.40;;
5209;SDS011;2624;48.048;11.706;2023-07-28T14:12:44;5.40;;;2.70;;
5209;SDS011;2624;48.048;11.706;2023-07-28T14:17:46;1.40;;;1.30;;
5209;SDS011;2624;48.048;11.706;2023-07-28T14:22:49;5.40;;;3.47;;
5209;SDS011;2624;48.048;11.706;2023-07-28T14:27:51;16.50;;;6.07;;
5209;SDS011;2624;48.048;11.706;2023-07-28T14:32:53;6.83;;;4.07;;
5209;SDS011;2624;48.048;11.706;2023-07-28T14:37:56;9.30;;;3.77;;
5209;SDS011;2624;48.048;11.706;2023-07-28T14:42:58;11.60;;;4.80;;
5209;SDS011;2624;48.048;11.706;2023-07-28T14:48:00;5.00;;;2.67;;
5209;SDS011;2624;48.048;11.706;2023-07-28T14:53:10;15.50;;;4.37;;
5209;SDS011;2624;48.048;11.706;2023-07-28T14:58:29;7.33;;;2.70;;
5209;SDS011;2624;48.048;11.706;2023-07-28T15:03:32;9.00;;;3.47;;
5209;SDS011;2624;48.048;11.706;2023-07-28T15:08:35;5.00;;;2.50;;
5209;SDS011;2624;48.048;11.706;2023-07-28T15:13:37;9.83;;;3.07;;
5209;SDS011;2624;48.048;11.706;2023-07-28T15:18:38;5.43;;;2.80;;
5209;SDS011;2624;48.048;11.706;2023-07-28T15:23:42;12.60;;;3.07;;
5209;SDS011;2624;48.048;11.706;2023-07-28T15:28:44;17.80;;;3.93;;
5209;SDS011;2624;48.048;11.706;2023-07-28T15:33:45;10.40;;;3.60;;
5209;SDS011;2624;48.048;11.706;2023-07-28T15:38:49;2.67;;;2.10;;
5209;SDS011;2624;48.048;11.706;2023-07-28T15:43:50;2.47;;;2.27;;
5209;SDS011;2624;48.048;11.706;2023-07-28T15:48:52;3.90;;;2.60;;
5209;SDS011;2624;48.048;11.706;2023-07-28T15:53:55;4.10;;;2.10;;
5209;SDS011;2624;48.048;11.706;2023-07-28T15:58:57;15.93;;;3.70;;
5209;SDS011;2624;48.048;11.706;2023-07-28T16:03:59;3.63;;;2.43;;
5209;SDS011;2624;48.048;11.706;2023-07-28T16:09:02;3.73;;;2.20;;
5209;SDS011;2624;48.048;11.706;2023-07-28T16:14:04;2.50;;;2.30;;
5209;SDS011;2624;48.048;11.706;2023-07-28T16:19:05;3.00;;;1.77;;
5209;SDS011;2624;48.048;11.706;2023-07-28T16:24:08;2.13;;;1.80;;
5209;SDS011;2624;48.048;11.706;2023-07-28T16:29:10;2.20;;;2.00;;
5209;SDS011;2624;48.048;11.706;2023-07-28T16:34:12;2.43;;;2.03;;
5209;SDS011;2624;48.048;11.706;2023-07-28T16:39:15;2.37;;;1.80;;
5209;SDS011;2624;48.048;11.706;2023-07-28T16:44:17;3.43;;;2.70;;
5209;SDS011;2624;48.048;11.706;2023-07-28T16:49:19;2.33;;;2.13;;
5209;SDS011;2624;48.048;11.706;2023-07-28T16:54:22;2.17;;;2.03;;
5209;SDS011;2624;48.048;11.706;2023-07-28T16:59:24;3.17;;;2.13;;
5209;SDS011;2624;48.048;11.706;2023-07-28T17:04:26;3.43;;;2.80;;
5209;SDS011;2624;48.048;11.706;2023-07-28T17:09:29;2.77;;;2.00;;
5209;SDS011;2624;48.048;11.706;2023-07-28T17:14:31;3.33;;;1.83;;
5209;SDS011;2624;48.048;11.706;2023-07-28T17:19:32;2.93;;;2.20;;
5209;SDS011;2624;48.048;11.706;2023-07-28T17:24:36;1.80;;;1.70;;
5209;SDS011;2624;48.048;11.706;2023-07-28T17:29:38;2.70;;;1.70;;
5209;SDS011;2624;48.048;11.706;2023-07-28T17:34:39;2.37;;;2.20;;
5209;SDS011;2624;48.048;11.706;2023-07-28T17:39:42;2.63;;;2.40;;
5209;SDS011;2624;48.048;11.706;2023-07-28T17:44:44;2.10;;;2.00;;
5209;SDS011;2624;48.048;11.706;2023-07-28T17:49:46;4.83;;;2.13;;
5209;SDS011;2624;48.048;11.706;2023-07-28T17:54:49;2.50;;;2.30;;
5209;SDS011;2624;48.048;11.706;2023-07-28T17:59:51;2.20;;;2.10;;
5209;SDS011;2624;48.048;11.706;2023-07-28T18:04:53;2.30;;;2.20;;
5209;SDS011;2624;48.048;11.706;2023-07-28T18:09:56;4.30;;;2.67;;
5209;SDS011;2624;48.048;11.706;2023-07-28T18:14:58;2.83;;;2.63;;
5209;SDS011;2624;48.048;11.706;2023-07-28T18:19:59;2.97;;;2.67;;
5209;SDS011;2624;48.048;11.706;2023-07-28T18:25:03;6.43;;;3.17;;
5209;SDS011;2624;48.048;11.706;2023-07-28T18:30:05;17.77;;;4.57;;
5209;SDS011;2624;48.048;11.706;2023-07-28T18:35:08;7.60;;;4.00;;
5209;SDS011;2624;48.048;11.706;2023-07-28T18:40:11;7.13;;;2.80;;
5209;SDS011;2624;48.048;11.706;2023-07-28T18:45:13;3.20;;;2.90;;
5209;SDS011;2624;48.048;11.706;2023-07-28T18:50:15;2.27;;;2.10;;
5209;SDS011;2624;48.048;11.706;2023-07-28T18:55:18;2.50;;;2.40;;
5209;SDS011;2624;48.048;11.706;2023-07-28T19:00:20;13.97;;;2.83;;
5209;SDS011;2624;48.048;11.706;2023-07-28T19:05:22;2.70;;;2.50;;
5209;SDS011;2624;48.048;11.706;2023-07-28T19:10:26;3.40;;;3.17;;
5209;SDS011;2624;48.048;11.706;2023-07-28T19:15:27;3.30;;;2.83;;
5209;SDS011;2624;48.048;11.706;2023-07-28T19:20:29;2.63;;;2.30;;
5209;SDS011;2624;48.048;11.706;2023-07-28T19:25:32;2.47;;;2.13;;
5209;SDS011;2624;48.048;11.706;2023-07-28T19:30:34;2.37;;;2.17;;
5209;SDS011;2624;48.048;11.706;2023-07-28T19:35:36;2.33;;;2.23;;
5209;SDS011;2624;48.048;11.706;2023-07-28T19:40:39;2.67;;;2.47;;
5209;SDS011;2624;48.048;11.706;2023-07-28T19:45:41;2.17;;;2.07;;
5209;SDS011;2624;48.048;11.706;2023-07-28T19:50:44;1.90;;;1.70;;
5209;SDS011;2624;48.048;11.706;2023-07-28T19:55:47;1.87;;;1.77;;
5209;SDS011;2624;48.048;11.706;2023-07-28T20:00:49;3.47;;;2.40;;
5209;SDS011;2624;48.048;11.706;2023-07-28T20:05:51;3.20;;;1.77;;
5209;SDS011;2624;48.048;11.706;2023-07-28T20:10:54;1.50;;;1.50;;
5209;SDS011;2624;48.048;11.706;2023-07-28T20:15:56;1.60;;;1.53;;
5209;SDS011;2624;48.048;11.706;2023-07-28T20:20:58;1.70;;;1.60;;
5209;SDS011;2624;48.048;11.706;2023-07-28T20:26:01;1.20;;;1.20;;
5209;SDS011;2624;48.048;11.706;2023-07-28T20:31:05;1.27;;;1.27;;
5209;SDS011;2624;48.048;11.706;2023-07-28T20:36:07;1.63;;;1.53;;
5209;SDS011;2624;48.048;11.706;2023-07-28T20:41:10;1.30;;;1.20;;
5209;SDS011;2624;48.048;11.706;2023-07-28T20:46:12;1.03;;;1.03;;
5209;SDS011;2624;48.048;11.706;2023-07-28T20:51:15;0.90;;;0.90;;
5209;SDS011;2624;48.048;11.706;2023-07-28T20:56:18;1.20;;;1.10;;
5209;SDS011;2624;48.048;11.706;2023-07-28T21:01:19;1.40;;;1.40;;
5209;SDS011;2624;48.048;11.706;2023-07-28T21:06:21;1.13;;;1.10;;
5209;SDS011;2624;48.048;11.706;2023-07-28T21:11:24;3.17;;;1.10;;
5209;SDS011;2624;48.048;11.706;2023-07-28T21:16:26;1.63;;;1.13;;
5209;SDS011;2624;48.048;11.706;2023-07-28T21:21:28;2.00;;;1.50;;
5209;SDS011;2624;48.048;11.706;2023-07-28T21:26:31;1.40;;;1.30;;
5209;SDS011;2624;48.048;11.706;2023-07-28T21:31:33;1.60;;;1.60;;
5209;SDS011;2624;48.048;11.706;2023-07-28T21:36:35;2.50;;;1.50;;
5209;SDS011;2624;48.048;11.706;2023-07-28T21:41:38;1.53;;;1.43;;
5209;SDS011;2624;48.048;11.706;2023-07-28T21:46:40;1.50;;;1.40;;
5209;SDS011;2624;48.048;11.706;2023-07-28T21:51:42;2.40;;;1.30;;
5209;SDS011;2624;48.048;11.706;2023-07-28T21:56:45;1.17;;;1.17;;
5209;SDS011;2624;48.048;11.706;2023-07-28T22:01:47;2.17;;;1.30;;
5209;SDS011;2624;48.048;11.706;2023-07-28T22:06:48;1.70;;;1.60;;
5209;SDS011;2624;48.048;11.706;2023-07-28T22:11:51;3.13;;;1.57;;
5209;SDS011;2624;48.048;11.706;2023-07-28T22:16:53;4.80;;;2.13;;
5209;SDS011;2624;48.048;11.706;2023-07-28T22:21:55;1.53;;;1.27;;
5209;SDS011;2624;48.048;11.706;2023-07-28T22:26:58;2.00;;;1.20;;
5209;SDS011;2624;48.048;11.706;2023-07-28T22:32:00;1.57;;;1.43;;
5209;SDS011;2624;48.048;11.706;2023-07-28T22:37:02;2.00;;;1.90;;
5209;SDS011;2624;48.048;11.706;2023-07-28T22:42:05;2.13;;;1.93;;
5209;SDS011;2624;48.048;11.706;2023-07-28T22:47:07;1.93;;;1.83;;
5209;SDS011;2624;48.048;11.706;2023-07-28T22:52:09;3.07;;;1.77;;
5209;SDS011;2624;48.048;11.706;2023-07-28T22:57:12;2.30;;;2.10;;
5209;SDS011;2624;48.048;11.706;2023-07-28T23:02:14;1.90;;;1.80;;
5209;SDS011;2624;48.048;11.706;2023-07-28T23:07:16;1.67;;;1.50;;
5209;SDS011;2624;48.048;11.706;2023-07-28T23:12:19;2.30;;;1.80;;
5209;SDS011;2624;48.048;11.706;2023-07-28T23:17:21;2.90;;;1.80;;
5209;SDS011;2624;48.048;11.706;2023-07-28T23:22:23;1.40;;;1.30;;
5209;SDS011;2624;48.048;11.706;2023-07-28T23:27:26;1.90;;;1.70;;
5209;SDS011;2624;48.048;11.706;2023-07-28T23:32:28;2.23;;;1.50;;
5209;SDS011;2624;48.048;11.706;2023-07-28T23:37:30;1.90;;;1.80;;
5209;SDS011;2624;48.048;11.706;2023-07-28T23:42:33;2.10;;;2.00;;
5209;SDS011;2624;48.048;11.706;2023-07-28T23:47:35;2.13;;;1.83;;
5209;SDS011;2624;48.048;11.706;2023-07-28T23:52:37;1.60;;;1.60;;
5209;SDS011;2624;48.048;11.706;2023-07-28T23:57:40;6.83;;;1.77;;
